1854 Tropical Storm NOT_NAMED (1854279N12297)


IBTrACS version v04r00. Visit IBTrACS website for data access.
Please direct all questions to the IBTrACS Q and A forum

Storm track - Intensity - Wind Radii - Intensity Data - Source Data - All data

Summary Information

Storm ID 1854279N12297
Start Oct 5 12Z
Max Intensity 55 kt (Oct 10 12Z)
End Oct 15 18Z
ATCF IDs
Track status Best track data.

Storm track plot

Map of storm track

Intensity plots

Map of storm track

Radial wind information

No radial wind information for this storm


Position and Intensity Table

BASIN ISO_TIME_________ NATURE LAT LON MLC WIND
degrees north degrees east kts
NA 1854-10-05 12:00:00 TS 12.00 -62.80 30
NA 15:00:00 TS 12.15 -62.85 30
NA 18:00:00 TS 12.30 -62.90 30
NA 21:00:00 TS 12.45 -62.95 30
NA 1854-10-06 00:00:00 TS 12.60 -63.00 30
NA 03:00:00 TS 12.75 -63.05 30
NA 06:00:00 TS 12.90 -63.10 30
NA 09:00:00 TS 13.05 -63.15 30
NA 12:00:00 TS 13.20 -63.20 30
NA 15:00:00 TS 13.34 -63.25 30
NA 18:00:00 TS 13.50 -63.30 30
NA 21:00:00 TS 13.70 -63.35 30
NA 1854-10-07 00:00:00 TS 13.90 -63.40 30
NA 03:00:00 TS 14.06 -63.45 30
NA 06:00:00 TS 14.20 -63.50 30
NA 09:00:00 TS 14.34 -63.55 32
NA 12:00:00 TS 14.50 -63.60 35
NA 15:00:00 TS 14.69 -63.65 35
NA 18:00:00 TS 14.90 -63.70 35
NA 21:00:00 TS 15.10 -63.75 35
NA 1854-10-08 00:00:00 TS 15.30 -63.80 35
NA 03:00:00 TS 15.51 -63.85 35
NA 06:00:00 TS 15.70 -63.90 35
NA 09:00:00 TS 15.84 -63.96 37
NA 12:00:00 TS 16.00 -64.00 40
NA 15:00:00 TS 16.23 -64.01 40
NA 18:00:00 TS 16.50 -64.00 40
NA 21:00:00 TS 16.80 -64.00 40
NA 1854-10-09 00:00:00 TS 17.10 -64.00 40
NA 03:00:00 TS 17.35 -64.01 40
NA 06:00:00 TS 17.60 -64.00 40
NA 09:00:00 TS 17.91 -63.94 42
NA 12:00:00 TS 18.20 -63.80 45
NA 15:00:00 TS 18.42 -63.54 45
NA 18:00:00 TS 18.60 -63.20 45
NA 21:00:00 TS 18.80 -62.88 45
NA 1854-10-10 00:00:00 TS 19.00 -62.50 45
NA 03:00:00 TS 19.19 -61.99 47
NA 06:00:00 TS 19.40 -61.50 50
NA 09:00:00 TS 19.65 -61.18 52
NA 12:00:00 TS 19.90 -60.90 55
NA 15:00:00 TS 20.11 -60.56 55
NA 18:00:00 TS 20.30 -60.20 55
NA 21:00:00 TS 20.50 -59.86 55
NA 1854-10-11 00:00:00 TS 20.70 -59.50 55
NA 03:00:00 TS 20.90 -59.10 55
NA 06:00:00 TS 21.10 -58.70 55
NA 09:00:00 TS 21.29 -58.36 55
NA 12:00:00 TS 21.50 -58.00 55
NA 15:00:00 TS 21.74 -57.52 55
NA 18:00:00 TS 22.00 -57.00 55
NA 21:00:00 TS 22.29 -56.49 55
NA 1854-10-12 00:00:00 TS 22.60 -56.00 55
NA 03:00:00 TS 22.91 -55.55 55
NA 06:00:00 TS 23.20 -55.10 55
NA 09:00:00 TS 23.44 -54.63 55
NA 12:00:00 TS 23.70 -54.10 55
NA 15:00:00 TS 24.03 -53.47 55
NA 18:00:00 TS 24.40 -52.80 55
NA 21:00:00 TS 24.75 -52.15 55
NA 1854-10-13 00:00:00 TS 25.10 -51.50 55
NA 03:00:00 TS 25.45 -50.85 55
NA 06:00:00 TS 25.80 -50.20 55
NA 09:00:00 TS 26.13 -49.56 55
NA 12:00:00 TS 26.50 -48.90 55
NA 15:00:00 TS 26.98 -48.17 55
NA 18:00:00 TS 27.50 -47.40 55
NA 21:00:00 TS 27.95 -46.60 55
NA 1854-10-14 00:00:00 TS 28.40 -45.80 55
NA 03:00:00 TS 28.90 -45.04 52
NA 06:00:00 TS 29.40 -44.30 50
NA 09:00:00 TS 29.84 -43.55 47
NA 12:00:00 TS 30.30 -42.80 45
NA 15:00:00 TS 30.83 -42.06 42
NA 18:00:00 TS 31.40 -41.30 40
NA 21:00:00 TS 31.96 -40.51 37
NA 1854-10-15 00:00:00 TS 32.50 -39.70 35
NA 03:00:00 TS 33.01 -38.82 35
NA 06:00:00 ET 33.50 -38.10 35
NA 09:00:00 ET 34.04 -37.66 35
NA 12:00:00 ET 34.50 -37.60 35
NA 15:00:00 ET 34.80 -37.94 35
NA 18:00:00 ET 35.00 -38.50 35

Source Information

Agency Information
USA
TOKYO
CMA
HKO
NEWDELHI
REUNION
BOM
NADI
WELLINGTON
DS824
TD9636
TD9635
NEUMANN
MLC

All available IBTrACS Data

SEASON BASIN SUBBASIN ISO_TIME_________ NATURE LAT LON DIST2LAND LANDFALL IFLAG USA SSHS MLC LAT MLC LON MLC CLASS MLC WIND STORM SPEED STORM DIR
Year degrees north degrees east km km 1 degrees north degrees east kts kts degrees
1854 NA CS 1854-10-05 12:00:00 TS 12.00 -62.80 145 145 _____________O -1 12.00 -62.80 TD 30 3 341
1854 NA CS 15:00:00 TS 12.15 -62.85 167 167 _____________P -1 12.15 -62.85 TD 30 3 343
1854 NA CS 18:00:00 TS 12.30 -62.90 179 179 _____________O -1 12.30 -62.90 TD 30 3 343
1854 NA CS 21:00:00 TS 12.45 -62.95 201 190 _____________P -1 12.45 -62.95 TD 30 3 343
1854 NA CS 1854-10-06 00:00:00 TS 12.60 -63.00 212 212 _____________O -1 12.60 -63.00 TD 30 3 343
1854 NA CS 03:00:00 TS 12.75 -63.05 235 223 _____________P -1 12.75 -63.05 TD 30 3 343
1854 NA CS 06:00:00 TS 12.90 -63.10 246 246 _____________O -1 12.90 -63.10 TD 30 3 343
1854 NA CS 09:00:00 TS 13.05 -63.15 268 257 _____________P -1 13.05 -63.15 TD 30 3 343
1854 NA CS 12:00:00 TS 13.20 -63.20 280 280 _____________O -1 13.20 -63.20 TD 30 3 341
1854 NA CS 15:00:00 TS 13.34 -63.25 291 291 _____________P -1 13.34 -63.25 TD 30 3 343
1854 NA CS 18:00:00 TS 13.50 -63.30 314 314 _____________O -1 13.50 -63.30 TD 30 4 344
1854 NA CS 21:00:00 TS 13.70 -63.35 336 336 _____________P -1 13.70 -63.35 TD 30 4 347
1854 NA CS 1854-10-07 00:00:00 TS 13.90 -63.40 359 359 _____________O -1 13.90 -63.40 TD 30 4 344
1854 NA CS 03:00:00 TS 14.06 -63.45 383 383 _____________P -1 14.06 -63.45 TD 30 3 343
1854 NA CS 06:00:00 TS 14.20 -63.50 394 394 _____________O -1 14.20 -63.50 TD 30 3 341
1854 NA CS 09:00:00 TS 14.34 -63.55 406 406 _____________P -1 14.34 -63.55 TD 32 3 343
1854 NA CS 12:00:00 TS 14.50 -63.60 428 428 _____________O -1 14.50 -63.60 TS 35 4 345
1854 NA CS 15:00:00 TS 14.69 -63.65 432 412 _____________P -1 14.69 -63.65 TS 35 4 347
1854 NA CS 18:00:00 TS 14.90 -63.70 412 394 _____________O -1 14.90 -63.70 TS 35 4 347
1854 NA CS 21:00:00 TS 15.10 -63.75 388 369 _____________P -1 15.10 -63.75 TS 35 4 347
1854 NA CS 1854-10-08 00:00:00 TS 15.30 -63.80 369 351 _____________O -1 15.30 -63.80 TS 35 4 347
1854 NA CS 03:00:00 TS 15.51 -63.85 351 327 _____________P -1 15.51 -63.85 TS 35 4 347
1854 NA CS 06:00:00 TS 15.70 -63.90 327 311 _____________O -1 15.70 -63.90 TS 35 4 342
1854 NA CS 09:00:00 TS 15.84 -63.96 311 294 _____________P -1 15.84 -63.96 TS 37 3 343
1854 NA CS 12:00:00 TS 16.00 -64.00 294 277 _____________O -1 16.00 -64.00 TS 40 4 353
1854 NA CS 15:00:00 TS 16.23 -64.01 277 254 _____________P -1 16.23 -64.01 TS 40 5 2
1854 NA CS 18:00:00 TS 16.50 -64.00 254 230 _____________O -1 16.50 -64.00 TS 40 6 0
1854 NA CS 21:00:00 TS 16.80 -64.00 230 209 _____________P -1 16.80 -64.00 TS 40 6 1
1854 NA CS 1854-10-09 00:00:00 TS 17.10 -64.00 209 197 _____________O -1 17.10 -64.00 TS 40 6 0
1854 NA CS 03:00:00 TS 17.35 -64.01 197 182 _____________P -1 17.35 -64.01 TS 40 5 2
1854 NA CS 06:00:00 TS 17.60 -64.00 182 172 _____________O -1 17.60 -64.00 TS 40 6 8
1854 NA CS 09:00:00 TS 17.91 -63.94 182 179 _____________P -1 17.91 -63.94 TS 42 6 18
1854 NA CS 12:00:00 TS 18.20 -63.80 190 190 _____________O -1 18.20 -63.80 TS 45 6 37
1854 NA CS 15:00:00 TS 18.42 -63.54 221 221 _____________P -1 18.42 -63.54 TS 45 7 55
1854 NA CS 18:00:00 TS 18.60 -63.20 254 254 _____________O -1 18.60 -63.20 TS 45 7 58
1854 NA CS 21:00:00 TS 18.80 -62.88 288 288 _____________P -1 18.80 -62.88 TS 45 8 59
1854 NA NA 1854-10-10 00:00:00 TS 19.00 -62.50 333 333 _____________O -1 19.00 -62.50 TS 45 9 65
1854 NA NA 03:00:00 TS 19.19 -61.99 389 389 _____________P -1 19.19 -61.99 TS 47 10 67
1854 NA NA 06:00:00 TS 19.40 -61.50 445 445 _____________O -1 19.40 -61.50 TS 50 9 59
1854 NA NA 09:00:00 TS 19.65 -61.18 481 481 _____________P -1 19.65 -61.18 TS 52 8 49
1854 NA NA 12:00:00 TS 19.90 -60.90 521 521 _____________O -1 19.90 -60.90 TS 55 7 52
1854 NA NA 15:00:00 TS 20.11 -60.56 558 558 _____________P -1 20.11 -60.56 TS 55 8 59
1854 NA NA 18:00:00 TS 20.30 -60.20 605 605 _____________O -1 20.30 -60.20 TS 55 8 59
1854 NA NA 21:00:00 TS 20.50 -59.86 642 642 _____________P -1 20.50 -59.86 TS 55 8 59
1854 NA NA 1854-10-11 00:00:00 TS 20.70 -59.50 688 688 _____________O -1 20.70 -59.50 TS 55 8 61
1854 NA NA 03:00:00 TS 20.90 -59.10 735 735 _____________P -1 20.90 -59.10 TS 55 8 62
1854 NA NA 06:00:00 TS 21.10 -58.70 782 782 _____________O -1 21.10 -58.70 TS 55 8 60
1854 NA NA 09:00:00 TS 21.29 -58.36 819 819 _____________P -1 21.29 -58.36 TS 55 8 58
1854 NA NA 12:00:00 TS 21.50 -58.00 866 866 _____________O -1 21.50 -58.00 TS 55 9 61
1854 NA NA 15:00:00 TS 21.74 -57.52 922 922 _____________P -1 21.74 -57.52 TS 55 11 62
1854 NA NA 18:00:00 TS 22.00 -57.00 983 983 _____________O -1 22.00 -57.00 TS 55 11 60
1854 NA NA 21:00:00 TS 22.29 -56.49 1043 1043 _____________P -1 22.29 -56.49 TS 55 11 57
1854 NA NA 1854-10-12 00:00:00 TS 22.60 -56.00 1104 1104 _____________O -1 22.60 -56.00 TS 55 11 55
1854 NA NA 03:00:00 TS 22.91 -55.55 1164 1164 _____________P -1 22.91 -55.55 TS 55 10 54
1854 NA NA 06:00:00 TS 23.20 -55.10 1215 1215 _____________O -1 23.20 -55.10 TS 55 10 58
1854 NA NA 09:00:00 TS 23.44 -54.63 1271 1271 _____________P -1 23.44 -54.63 TS 55 10 61
1854 NA NA 12:00:00 TS 23.70 -54.10 1331 1331 _____________O -1 23.70 -54.10 TS 55 12 61
1854 NA NA 15:00:00 TS 24.03 -53.47 1400 1400 _____________P -1 24.03 -53.47 TS 55 14 59
1854 NA NA 18:00:00 TS 24.40 -52.80 1483 1483 _____________O -1 24.40 -52.80 TS 55 14 59
1854 NA NA 21:00:00 TS 24.75 -52.15 1562 1562 _____________P -1 24.75 -52.15 TS 55 14 59
1854 NA NA 1854-10-13 00:00:00 TS 25.10 -51.50 1635 1635 _____________O -1 25.10 -51.50 TS 55 14 59
1854 NA NA 03:00:00 TS 25.45 -50.85 1713 1713 _____________P -1 25.45 -50.85 TS 55 14 59
1854 NA NA 06:00:00 TS 25.80 -50.20 1786 1786 _____________O -1 25.80 -50.20 TS 55 13 60
1854 NA NA 09:00:00 TS 26.13 -49.56 1855 1855 _____________P -1 26.13 -49.56 TS 55 14 59
1854 NA NA 12:00:00 TS 26.50 -48.90 1937 1937 _____________O -1 26.50 -48.90 TS 55 15 55
1854 NA NA 15:00:00 TS 26.98 -48.17 2023 2023 _____________P -1 26.98 -48.17 TS 55 17 53
1854 NA NA 18:00:00 TS 27.50 -47.40 2118 2118 _____________O -1 27.50 -47.40 TS 55 17 55
1854 NA NA 21:00:00 TS 27.95 -46.60 2160 2126 _____________P -1 27.95 -46.60 TS 55 17 58
1854 NA NA 1854-10-14 00:00:00 TS 28.40 -45.80 2126 2092 _____________O -1 28.40 -45.80 TS 55 17 55
1854 NA NA 03:00:00 TS 28.90 -45.04 2095 2063 _____________P -1 28.90 -45.04 TS 52 17 53
1854 NA NA 06:00:00 TS 29.40 -44.30 2063 2041 _____________O -1 29.40 -44.30 TS 50 16 54
1854 NA NA 09:00:00 TS 29.84 -43.55 2048 2022 _____________P -1 29.84 -43.55 TS 47 16 55
1854 NA NA 12:00:00 TS 30.30 -42.80 2022 1999 _____________O -1 30.30 -42.80 TS 45 16 52
1854 NA NA 15:00:00 TS 30.83 -42.06 1999 1973 _____________P -1 30.83 -42.06 TS 42 17 50
1854 NA NA 18:00:00 TS 31.40 -41.30 1973 1956 _____________O -1 31.40 -41.30 TS 40 17 50
1854 NA NA 21:00:00 TS 31.96 -40.51 1951 1941 _____________P -1 31.96 -40.51 TS 37 17 51
1854 NA NA 1854-10-15 00:00:00 TS 32.50 -39.70 1942 1934 _____________O -1 32.50 -39.70 TS 35 18 54
1854 NA NA 03:00:00 TS 33.01 -38.82 1941 1932 _____________P -1 33.01 -38.82 TS 35 17 53
1854 NA NA 06:00:00 ET 33.50 -38.10 1934 1912 _____________O -1 33.50 -38.10 EX 35 14 43
1854 NA NA 09:00:00 ET 34.04 -37.66 1912 1874 _____________P -1 34.04 -37.66 EX 35 11 23
1854 NA NA 12:00:00 ET 34.50 -37.60 1874 1831 _____________O -1 34.50 -37.60 EX 35 8 343
1854 NA NA 15:00:00 ET 34.80 -37.94 1831 1779 _____________P -1 34.80 -37.94 EX 35 9 304
1854 NA NA 18:00:00 ET 35.00 -38.50 1779 _____________O -1 35.00 -38.50 EX 35 10 293